sensor_id;sensor_type;location;lat;lon;timestamp;pressure;altitude;pressure_sealevel;temperature;humidity
17054;BME280;8643;48.824;11.422;2023-04-24T00:00:57;95971.88;;;10.22;100.00
17054;BME280;8643;48.824;11.422;2023-04-24T00:03:26;95965.97;;;10.20;100.00
17054;BME280;8643;48.824;11.422;2023-04-24T00:05:55;95965.50;;;10.18;100.00
17054;BME280;8643;48.824;11.422;2023-04-24T00:08:26;95965.63;;;10.22;100.00
17054;BME280;8643;48.824;11.422;2023-04-24T00:10:55;95963.75;;;10.10;100.00
17054;BME280;8643;48.824;11.422;2023-04-24T00:13:23;95968.94;;;10.15;100.00
17054;BME280;8643;48.824;11.422;2023-04-24T00:15:52;95972.75;;;10.11;100.00
17054;BME280;8643;48.824;11.422;2023-04-24T00:18:22;95971.84;;;10.06;100.00
17054;BME280;8643;48.824;11.422;2023-04-24T00:20:51;95970.72;;;10.07;100.00
17054;BME280;8643;48.824;11.422;2023-04-24T00:23:19;95960.84;;;10.03;100.00
17054;BME280;8643;48.824;11.422;2023-04-24T00:25:48;95957.75;;;10.04;100.00
17054;BME280;8643;48.824;11.422;2023-04-24T00:28:17;95950.75;;;10.07;100.00
17054;BME280;8643;48.824;11.422;2023-04-24T00:30:46;95948.22;;;10.14;100.00
17054;BME280;8643;48.824;11.422;2023-04-24T00:33:14;95950.16;;;10.14;100.00
17054;BME280;8643;48.824;11.422;2023-04-24T00:35:46;95958.63;;;10.08;100.00
17054;BME280;8643;48.824;11.422;2023-04-24T00:38:15;95955.97;;;9.96;100.00
17054;BME280;8643;48.824;11.422;2023-04-24T00:40:43;95953.16;;;9.93;100.00
17054;BME280;8643;48.824;11.422;2023-04-24T00:43:12;95959.75;;;9.91;100.00
17054;BME280;8643;48.824;11.422;2023-04-24T00:45:41;95965.22;;;9.91;100.00
17054;BME280;8643;48.824;11.422;2023-04-24T00:48:10;95966.72;;;9.89;100.00
17054;BME280;8643;48.824;11.422;2023-04-24T00:50:40;95964.25;;;9.84;100.00
17054;BME280;8643;48.824;11.422;2023-04-24T00:53:10;95960.13;;;9.90;100.00
17054;BME280;8643;48.824;11.422;2023-04-24T00:55:39;95963.63;;;9.90;100.00
17054;BME280;8643;48.824;11.422;2023-04-24T00:58:08;95962.41;;;9.88;100.00
17054;BME280;8643;48.824;11.422;2023-04-24T01:00:37;95959.13;;;9.82;100.00
17054;BME280;8643;48.824;11.422;2023-04-24T01:03:06;95963.53;;;9.87;100.00
17054;BME280;8643;48.824;11.422;2023-04-24T01:05:36;95959.75;;;9.91;100.00
17054;BME280;8643;48.824;11.422;2023-04-24T01:08:05;95955.91;;;9.93;100.00
17054;BME280;8643;48.824;11.422;2023-04-24T01:10:37;95962.50;;;9.91;100.00
17054;BME280;8643;48.824;11.422;2023-04-24T01:13:08;95961.72;;;9.91;100.00
17054;BME280;8643;48.824;11.422;2023-04-24T01:15:37;95962.56;;;9.79;100.00
17054;BME280;8643;48.824;11.422;2023-04-24T01:18:07;95964.31;;;9.71;100.00
17054;BME280;8643;48.824;11.422;2023-04-24T01:20:37;95967.06;;;9.71;100.00
17054;BME280;8643;48.824;11.422;2023-04-24T01:23:09;95957.09;;;9.63;100.00
17054;BME280;8643;48.824;11.422;2023-04-24T01:25:38;95954.53;;;9.70;100.00
17054;BME280;8643;48.824;11.422;2023-04-24T01:28:07;95957.09;;;9.79;100.00
17054;BME280;8643;48.824;11.422;2023-04-24T01:30:36;95957.25;;;9.70;100.00
17054;BME280;8643;48.824;11.422;2023-04-24T01:33:05;95959.38;;;9.77;100.00
17054;BME280;8643;48.824;11.422;2023-04-24T01:35:34;95964.31;;;9.71;100.00
17054;BME280;8643;48.824;11.422;2023-04-24T01:38:03;95952.94;;;9.69;100.00
17054;BME280;8643;48.824;11.422;2023-04-24T01:40:34;95947.94;;;9.71;100.00
17054;BME280;8643;48.824;11.422;2023-04-24T01:43:03;95945.63;;;9.73;100.00
17054;BME280;8643;48.824;11.422;2023-04-24T01:45:34;95946.75;;;9.72;100.00
17054;BME280;8643;48.824;11.422;2023-04-24T01:48:04;95953.03;;;9.73;100.00
17054;BME280;8643;48.824;11.422;2023-04-24T01:50:33;95953.13;;;9.77;100.00
17054;BME280;8643;48.824;11.422;2023-04-24T01:53:03;95949.97;;;9.75;100.00
17054;BME280;8643;48.824;11.422;2023-04-24T01:55:34;95947.66;;;9.77;100.00
17054;BME280;8643;48.824;11.422;2023-04-24T01:58:02;95940.69;;;9.79;100.00
17054;BME280;8643;48.824;11.422;2023-04-24T02:00:31;95928.53;;;9.77;100.00
17054;BME280;8643;48.824;11.422;2023-04-24T02:03:00;95931.88;;;9.70;100.00
17054;BME280;8643;48.824;11.422;2023-04-24T02:05:30;95932.75;;;9.74;100.00
17054;BME280;8643;48.824;11.422;2023-04-24T02:07:58;95931.59;;;9.75;100.00
17054;BME280;8643;48.824;11.422;2023-04-24T02:10:27;95927.81;;;9.64;100.00
17054;BME280;8643;48.824;11.422;2023-04-24T02:12:57;95928.84;;;9.59;100.00
17054;BME280;8643;48.824;11.422;2023-04-24T02:15:26;95925.69;;;9.57;100.00
17054;BME280;8643;48.824;11.422;2023-04-24T02:17:56;95916.22;;;9.54;100.00
17054;BME280;8643;48.824;11.422;2023-04-24T02:20:25;95926.13;;;9.59;100.00
17054;BME280;8643;48.824;11.422;2023-04-24T02:22:54;95923.81;;;9.61;100.00
17054;BME280;8643;48.824;11.422;2023-04-24T02:25:22;95924.72;;;9.65;100.00
17054;BME280;8643;48.824;11.422;2023-04-24T02:27:56;95918.34;;;9.61;100.00
17054;BME280;8643;48.824;11.422;2023-04-24T02:30:26;95923.28;;;9.56;100.00
17054;BME280;8643;48.824;11.422;2023-04-24T02:32:55;95925.25;;;9.55;100.00
17054;BME280;8643;48.824;11.422;2023-04-24T02:35:23;95927.00;;;9.63;100.00
17054;BME280;8643;48.824;11.422;2023-04-24T02:37:52;95919.50;;;9.60;100.00
17054;BME280;8643;48.824;11.422;2023-04-24T02:40:21;95924.50;;;9.58;100.00
17054;BME280;8643;48.824;11.422;2023-04-24T02:42:49;95919.44;;;9.57;100.00
17054;BME280;8643;48.824;11.422;2023-04-24T02:45:19;95925.13;;;9.51;100.00
17054;BME280;8643;48.824;11.422;2023-04-24T02:47:48;95921.78;;;9.42;100.00
17054;BME280;8643;48.824;11.422;2023-04-24T02:50:17;95918.56;;;9.40;100.00
17054;BME280;8643;48.824;11.422;2023-04-24T02:52:45;95921.13;;;9.33;100.00
17054;BME280;8643;48.824;11.422;2023-04-24T02:55:14;95927.38;;;9.33;100.00
17054;BME280;8643;48.824;11.422;2023-04-24T02:57:43;95924.44;;;9.26;100.00
17054;BME280;8643;48.824;11.422;2023-04-24T03:00:12;95932.66;;;9.26;100.00
17054;BME280;8643;48.824;11.422;2023-04-24T03:02:43;95927.19;;;9.26;100.00
17054;BME280;8643;48.824;11.422;2023-04-24T03:05:11;95927.19;;;9.26;100.00
17054;BME280;8643;48.824;11.422;2023-04-24T03:07:40;95934.13;;;9.24;100.00
17054;BME280;8643;48.824;11.422;2023-04-24T03:10:09;95935.72;;;9.25;100.00
17054;BME280;8643;48.824;11.422;2023-04-24T03:12:38;95939.84;;;9.18;100.00
17054;BME280;8643;48.824;11.422;2023-04-24T03:15:08;95944.06;;;9.16;100.00
17054;BME280;8643;48.824;11.422;2023-04-24T03:17:37;95941.34;;;9.16;100.00
17054;BME280;8643;48.824;11.422;2023-04-24T03:20:09;95945.91;;;9.12;100.00
17054;BME280;8643;48.824;11.422;2023-04-24T03:22:38;95940.78;;;9.10;100.00
17054;BME280;8643;48.824;11.422;2023-04-24T03:25:08;95945.56;;;9.13;100.00
17054;BME280;8643;48.824;11.422;2023-04-24T03:27:38;95939.31;;;9.13;100.00
17054;BME280;8643;48.824;11.422;2023-04-24T03:30:19;95936.81;;;9.08;100.00
17054;BME280;8643;48.824;11.422;2023-04-24T03:32:56;95941.81;;;9.06;100.00
17054;BME280;8643;48.824;11.422;2023-04-24T03:35:30;95944.53;;;9.06;100.00
17054;BME280;8643;48.824;11.422;2023-04-24T03:38:02;95945.00;;;9.08;100.00
17054;BME280;8643;48.824;11.422;2023-04-24T03:40:49;95946.47;;;9.17;100.00
17054;BME280;8643;48.824;11.422;2023-04-24T03:43:36;95943.94;;;9.12;100.00
17054;BME280;8643;48.824;11.422;2023-04-24T03:46:06;95942.81;;;9.13;100.00
17054;BME280;8643;48.824;11.422;2023-04-24T03:48:41;95947.34;;;9.22;100.00
17054;BME280;8643;48.824;11.422;2023-04-24T03:51:12;95942.44;;;9.27;100.00
17054;BME280;8643;48.824;11.422;2023-04-24T03:53:45;95940.06;;;9.26;100.00
17054;BME280;8643;48.824;11.422;2023-04-24T03:56:18;95936.38;;;9.34;100.00
17054;BME280;8643;48.824;11.422;2023-04-24T03:58:47;95934.88;;;9.36;100.00
17054;BME280;8643;48.824;11.422;2023-04-24T04:01:15;95934.25;;;9.27;100.00
17054;BME280;8643;48.824;11.422;2023-04-24T04:03:51;95935.13;;;9.31;100.00
17054;BME280;8643;48.824;11.422;2023-04-24T04:06:24;95930.59;;;9.23;100.00
17054;BME280;8643;48.824;11.422;2023-04-24T04:08:55;95927.19;;;9.26;100.00
17054;BME280;8643;48.824;11.422;2023-04-24T04:11:24;95933.88;;;9.29;100.00
17054;BME280;8643;48.824;11.422;2023-04-24T04:13:53;95934.69;;;9.29;100.00
17054;BME280;8643;48.824;11.422;2023-04-24T04:16:22;95932.91;;;9.21;100.00
17054;BME280;8643;48.824;11.422;2023-04-24T04:18:56;95932.91;;;9.21;100.00
17054;BME280;8643;48.824;11.422;2023-04-24T04:21:26;95938.03;;;9.10;100.00
17054;BME280;8643;48.824;11.422;2023-04-24T04:24:05;95931.78;;;9.10;100.00
17054;BME280;8643;48.824;11.422;2023-04-24T04:26:38;95933.38;;;9.11;100.00
17054;BME280;8643;48.824;11.422;2023-04-24T04:29:10;95936.91;;;9.11;100.00
17054;BME280;8643;48.824;11.422;2023-04-24T04:31:42;95931.34;;;9.08;100.00
17054;BME280;8643;48.824;11.422;2023-04-24T04:34:13;95938.03;;;9.10;100.00
17054;BME280;8643;48.824;11.422;2023-04-24T04:36:43;95944.53;;;9.06;100.00
17054;BME280;8643;48.824;11.422;2023-04-24T04:39:35;95939.91;;;8.94;100.00
17054;BME280;8643;48.824;11.422;2023-04-24T04:42:11;95944.50;;;8.90;100.00
17054;BME280;8643;48.824;11.422;2023-04-24T04:44:43;95943.47;;;8.82;100.00
17054;BME280;8643;48.824;11.422;2023-04-24T04:47:17;95946.44;;;8.77;100.00
17054;BME280;8643;48.824;11.422;2023-04-24T04:49:46;95947.44;;;8.85;100.00
17054;BME280;8643;48.824;11.422;2023-04-24T04:52:23;95944.50;;;8.90;100.00
17054;BME280;8643;48.824;11.422;2023-04-24T04:55:07;95943.00;;;8.92;100.00
17054;BME280;8643;48.824;11.422;2023-04-24T04:57:59;95945.72;;;8.92;100.00
17054;BME280;8643;48.824;11.422;2023-04-24T05:00:29;95942.19;;;8.92;100.00
17054;BME280;8643;48.824;11.422;2023-04-24T05:03:07;95948.91;;;8.94;100.00
17054;BME280;8643;48.824;11.422;2023-04-24T05:05:52;95947.06;;;8.98;100.00
17054;BME280;8643;48.824;11.422;2023-04-24T05:08:22;95949.94;;;8.90;100.00
17054;BME280;8643;48.824;11.422;2023-04-24T05:10:54;95960.16;;;8.93;100.00
17054;BME280;8643;48.824;11.422;2023-04-24T05:13:26;95963.34;;;8.95;100.00
17054;BME280;8643;48.824;11.422;2023-04-24T05:16:15;95961.06;;;8.97;100.00
17054;BME280;8643;48.824;11.422;2023-04-24T05:18:44;95959.47;;;8.96;100.00
17054;BME280;8643;48.824;11.422;2023-04-24T05:21:16;95954.94;;;9.00;100.00
17054;BME280;8643;48.824;11.422;2023-04-24T05:23:50;95966.09;;;8.95;100.00
17054;BME280;8643;48.824;11.422;2023-04-24T05:26:35;95965.34;;;9.10;100.00
17054;BME280;8643;48.824;11.422;2023-04-24T05:29:07;95972.31;;;9.08;100.00
17054;BME280;8643;48.824;11.422;2023-04-24T05:31:36;95971.94;;;9.09;100.00
17054;BME280;8643;48.824;11.422;2023-04-24T05:34:04;95969.59;;;9.08;100.00
17054;BME280;8643;48.824;11.422;2023-04-24T05:36:34;95971.16;;;9.09;100.00
17054;BME280;8643;48.824;11.422;2023-04-24T05:39:05;95968.88;;;9.11;100.00
17054;BME280;8643;48.824;11.422;2023-04-24T05:41:35;95979.34;;;9.09;100.00
17054;BME280;8643;48.824;11.422;2023-04-24T05:44:03;95976.28;;;9.10;100.00
17054;BME280;8643;48.824;11.422;2023-04-24T05:46:32;95979.78;;;9.11;100.00
17054;BME280;8643;48.824;11.422;2023-04-24T05:49:01;95980.47;;;9.20;100.00
17054;BME280;8643;48.824;11.422;2023-04-24T05:51:32;95979.28;;;9.33;100.00
17054;BME280;8643;48.824;11.422;2023-04-24T05:54:00;95979.78;;;9.51;100.00
17054;BME280;8643;48.824;11.422;2023-04-24T05:56:32;95986.69;;;9.61;100.00
17054;BME280;8643;48.824;11.422;2023-04-24T05:59:03;95987.88;;;9.76;100.00
17054;BME280;8643;48.824;11.422;2023-04-24T06:01:32;95997.59;;;9.89;100.00
17054;BME280;8643;48.824;11.422;2023-04-24T06:04:09;95989.06;;;10.07;100.00
17054;BME280;8643;48.824;11.422;2023-04-24T06:06:38;95993.94;;;10.14;100.00
17054;BME280;8643;48.824;11.422;2023-04-24T06:09:07;95998.03;;;9.91;100.00
17054;BME280;8643;48.824;11.422;2023-04-24T06:11:37;96004.56;;;9.87;100.00
17054;BME280;8643;48.824;11.422;2023-04-24T06:14:09;95995.88;;;9.69;100.00
17054;BME280;8643;48.824;11.422;2023-04-24T06:16:37;96000.13;;;9.66;100.00
17054;BME280;8643;48.824;11.422;2023-04-24T06:19:18;96004.16;;;9.72;100.00
17054;BME280;8643;48.824;11.422;2023-04-24T06:21:47;96000.94;;;9.83;100.00
17054;BME280;8643;48.824;11.422;2023-04-24T06:24:15;96001.91;;;9.90;100.00
17054;BME280;8643;48.824;11.422;2023-04-24T06:26:45;95997.06;;;9.84;100.00
17054;BME280;8643;48.824;11.422;2023-04-24T06:29:14;95998.16;;;10.11;100.00
17054;BME280;8643;48.824;11.422;2023-04-24T06:31:43;96007.69;;;10.01;100.00
17054;BME280;8643;48.824;11.422;2023-04-24T06:34:12;96002.03;;;10.10;100.00
17054;BME280;8643;48.824;11.422;2023-04-24T06:36:41;96001.75;;;10.15;100.00
17054;BME280;8643;48.824;11.422;2023-04-24T06:39:10;96000.13;;;10.11;100.00
17054;BME280;8643;48.824;11.422;2023-04-24T06:41:39;95998.97;;;10.27;100.00
17054;BME280;8643;48.824;11.422;2023-04-24T06:44:16;95992.00;;;10.30;100.00
17054;BME280;8643;48.824;11.422;2023-04-24T06:46:45;95990.41;;;10.29;100.00
17054;BME280;8643;48.824;11.422;2023-04-24T06:49:14;96001.13;;;10.50;100.00
17054;BME280;8643;48.824;11.422;2023-04-24T06:51:43;95995.19;;;10.32;100.00
17054;BME280;8643;48.824;11.422;2023-04-24T06:54:12;95995.00;;;10.57;100.00
17054;BME280;8643;48.824;11.422;2023-04-24T06:56:40;95990.88;;;10.47;100.00
17054;BME280;8643;48.824;11.422;2023-04-24T06:59:09;95995.91;;;10.61;100.00
17054;BME280;8643;48.824;11.422;2023-04-24T07:01:39;95995.38;;;10.55;100.00
17054;BME280;8643;48.824;11.422;2023-04-24T07:04:08;96002.78;;;10.71;100.00
17054;BME280;8643;48.824;11.422;2023-04-24T07:06:36;96002.03;;;10.90;100.00
17054;BME280;8643;48.824;11.422;2023-04-24T07:12:16;96010.38;;;10.77;100.00
17054;BME280;8643;48.824;11.422;2023-04-24T07:14:47;96016.00;;;10.85;100.00
17054;BME280;8643;48.824;11.422;2023-04-24T07:17:18;96021.88;;;11.03;100.00
17054;BME280;8643;48.824;11.422;2023-04-24T07:19:47;96025.97;;;11.28;100.00
17054;BME280;8643;48.824;11.422;2023-04-24T07:22:15;96019.34;;;11.49;100.00
17054;BME280;8643;48.824;11.422;2023-04-24T07:24:45;96022.19;;;11.72;100.00
17054;BME280;8643;48.824;11.422;2023-04-24T07:27:13;96016.69;;;11.52;100.00
17054;BME280;8643;48.824;11.422;2023-04-24T07:29:42;96020.28;;;11.56;100.00
17054;BME280;8643;48.824;11.422;2023-04-24T07:32:11;96025.22;;;11.47;100.00
17054;BME280;8643;48.824;11.422;2023-04-24T07:34:41;96016.00;;;11.20;100.00
17054;BME280;8643;48.824;11.422;2023-04-24T07:37:10;96026.56;;;11.02;100.00
17054;BME280;8643;48.824;11.422;2023-04-24T07:39:39;96065.03;;;10.74;100.00
17054;BME280;8643;48.824;11.422;2023-04-24T07:42:08;96069.09;;;10.04;100.00
17054;BME280;8643;48.824;11.422;2023-04-24T07:44:37;96064.63;;;9.43;100.00
17054;BME280;8643;48.824;11.422;2023-04-24T07:47:05;96072.00;;;9.02;100.00
17054;BME280;8643;48.824;11.422;2023-04-24T07:49:34;96057.41;;;8.97;100.00
17054;BME280;8643;48.824;11.422;2023-04-24T07:52:04;96054.59;;;8.94;100.00
17054;BME280;8643;48.824;11.422;2023-04-24T07:54:33;96068.59;;;8.68;100.00
17054;BME280;8643;48.824;11.422;2023-04-24T07:57:01;96078.47;;;8.72;100.00
17054;BME280;8643;48.824;11.422;2023-04-24T07:59:30;96087.03;;;8.37;100.00
17054;BME280;8643;48.824;11.422;2023-04-24T08:01:58;96090.38;;;8.43;100.00
17054;BME280;8643;48.824;11.422;2023-04-24T08:04:28;96088.00;;;8.54;100.00
17054;BME280;8643;48.824;11.422;2023-04-24T08:06:57;96101.56;;;8.62;100.00
17054;BME280;8643;48.824;11.422;2023-04-24T08:09:27;96092.25;;;8.88;100.00
17054;BME280;8643;48.824;11.422;2023-04-24T08:11:56;96099.31;;;9.02;100.00
17054;BME280;8643;48.824;11.422;2023-04-24T08:14:25;96096.22;;;9.15;100.00
17054;BME280;8643;48.824;11.422;2023-04-24T08:16:55;96093.13;;;9.29;100.00
17054;BME280;8643;48.824;11.422;2023-04-24T08:19:24;96084.28;;;9.08;100.00
17054;BME280;8643;48.824;11.422;2023-04-24T08:21:52;96085.28;;;9.15;100.00
17054;BME280;8643;48.824;11.422;2023-04-24T08:24:21;96088.59;;;9.21;100.00
17054;BME280;8643;48.824;11.422;2023-04-24T08:26:51;96089.25;;;9.30;100.00
17054;BME280;8643;48.824;11.422;2023-04-24T08:29:21;96087.91;;;9.24;100.00
17054;BME280;8643;48.824;11.422;2023-04-24T08:31:50;96095.81;;;9.42;100.00
17054;BME280;8643;48.824;11.422;2023-04-24T08:34:18;96085.41;;;9.60;100.00
17054;BME280;8643;48.824;11.422;2023-04-24T08:36:47;96090.06;;;9.71;100.00
17054;BME280;8643;48.824;11.422;2023-04-24T08:39:17;96093.28;;;9.61;100.00
17054;BME280;8643;48.824;11.422;2023-04-24T08:41:48;96096.69;;;10.27;100.00
17054;BME280;8643;48.824;11.422;2023-04-24T08:44:20;96104.13;;;10.42;100.00
17054;BME280;8643;48.824;11.422;2023-04-24T08:46:49;96112.53;;;10.21;100.00
17054;BME280;8643;48.824;11.422;2023-04-24T08:49:19;96108.09;;;10.17;100.00
17054;BME280;8643;48.824;11.422;2023-04-24T08:51:49;96095.44;;;10.53;100.00
17054;BME280;8643;48.824;11.422;2023-04-24T08:54:19;96088.47;;;11.23;100.00
17054;BME280;8643;48.824;11.422;2023-04-24T08:56:48;96090.19;;;12.21;100.00
17054;BME280;8643;48.824;11.422;2023-04-24T08:59:18;96088.34;;;12.72;100.00
17054;BME280;8643;48.824;11.422;2023-04-24T09:01:51;96087.94;;;12.96;100.00
17054;BME280;8643;48.824;11.422;2023-04-24T09:04:22;96095.56;;;13.56;100.00
17054;BME280;8643;48.824;11.422;2023-04-24T09:06:55;96098.06;;;12.92;100.00
17054;BME280;8643;48.824;11.422;2023-04-24T09:09:25;96091.56;;;12.77;100.00
17054;BME280;8643;48.824;11.422;2023-04-24T09:11:54;96092.72;;;12.53;100.00
17054;BME280;8643;48.824;11.422;2023-04-24T09:14:24;96094.50;;;13.38;100.00
17054;BME280;8643;48.824;11.422;2023-04-24T09:16:54;96097.72;;;13.44;100.00
17054;BME280;8643;48.824;11.422;2023-04-24T09:19:23;96101.44;;;13.05;100.00
17054;BME280;8643;48.824;11.422;2023-04-24T09:21:53;96104.84;;;12.98;100.00
17054;BME280;8643;48.824;11.422;2023-04-24T09:24:22;96104.19;;;12.59;100.00
17054;BME280;8643;48.824;11.422;2023-04-24T09:26:57;96110.44;;;11.78;100.00
17054;BME280;8643;48.824;11.422;2023-04-24T09:29:30;96102.81;;;11.51;100.00
17054;BME280;8643;48.824;11.422;2023-04-24T09:32:17;96101.00;;;11.40;100.00
17054;BME280;8643;48.824;11.422;2023-04-24T09:34:48;96100.38;;;11.46;100.00
17054;BME280;8643;48.824;11.422;2023-04-24T09:37:29;96105.97;;;11.89;100.00
17054;BME280;8643;48.824;11.422;2023-04-24T09:40:08;96121.22;;;11.86;100.00
17054;BME280;8643;48.824;11.422;2023-04-24T09:42:37;96111.44;;;12.47;100.00
17054;BME280;8643;48.824;11.422;2023-04-24T09:45:11;96120.19;;;11.75;100.00
17054;BME280;8643;48.824;11.422;2023-04-24T09:47:42;96116.13;;;11.33;100.00
17054;BME280;8643;48.824;11.422;2023-04-24T09:50:14;96116.50;;;11.32;100.00
17054;BME280;8643;48.824;11.422;2023-04-24T09:52:47;96116.16;;;11.17;100.00
17054;BME280;8643;48.824;11.422;2023-04-24T09:55:24;96123.25;;;11.03;100.00
17054;BME280;8643;48.824;11.422;2023-04-24T09:57:57;96120.69;;;10.78;100.00
17054;BME280;8643;48.824;11.422;2023-04-24T10:00:30;96119.56;;;10.79;100.00
17054;BME280;8643;48.824;11.422;2023-04-24T10:03:02;96118.59;;;11.74;100.00
17054;BME280;8643;48.824;11.422;2023-04-24T10:05:32;96116.63;;;12.53;100.00
17054;BME280;8643;48.824;11.422;2023-04-24T10:08:02;96115.25;;;12.86;100.00
17054;BME280;8643;48.824;11.422;2023-04-24T10:10:33;96104.38;;;12.93;99.34
17054;BME280;8643;48.824;11.422;2023-04-24T10:13:03;96101.50;;;13.09;97.12
17054;BME280;8643;48.824;11.422;2023-04-24T10:15:34;96094.31;;;13.54;92.85
17054;BME280;8643;48.824;11.422;2023-04-24T10:18:06;96101.50;;;13.09;91.21
17054;BME280;8643;48.824;11.422;2023-04-24T10:20:37;96094.97;;;12.71;91.76
17054;BME280;8643;48.824;11.422;2023-04-24T10:23:06;96099.84;;;12.35;93.83
17054;BME280;8643;48.824;11.422;2023-04-24T10:25:36;96108.41;;;11.74;97.86
17054;BME280;8643;48.824;11.422;2023-04-24T10:28:05;96117.28;;;11.32;100.00
17054;BME280;8643;48.824;11.422;2023-04-24T10:30:42;96127.94;;;11.18;100.00
17054;BME280;8643;48.824;11.422;2023-04-24T10:33:12;96153.56;;;10.21;100.00
17054;BME280;8643;48.824;11.422;2023-04-24T10:35:45;96167.78;;;9.33;100.00
17054;BME280;8643;48.824;11.422;2023-04-24T10:38:22;96176.63;;;8.81;100.00
17054;BME280;8643;48.824;11.422;2023-04-24T10:41:06;96163.88;;;8.73;100.00
17054;BME280;8643;48.824;11.422;2023-04-24T10:43:36;96162.16;;;8.56;100.00
17054;BME280;8643;48.824;11.422;2023-04-24T10:46:08;96165.84;;;8.97;100.00
17054;BME280;8643;48.824;11.422;2023-04-24T10:48:42;96157.88;;;9.29;100.00
17054;BME280;8643;48.824;11.422;2023-04-24T10:51:12;96158.06;;;10.14;100.00
17054;BME280;8643;48.824;11.422;2023-04-24T10:53:42;96157.47;;;10.49;100.00
17054;BME280;8643;48.824;11.422;2023-04-24T10:56:11;96150.41;;;11.43;100.00
17054;BME280;8643;48.824;11.422;2023-04-24T10:58:43;96153.72;;;12.43;100.00
17054;BME280;8643;48.824;11.422;2023-04-24T11:01:27;96147.13;;;13.36;100.00
17054;BME280;8643;48.824;11.422;2023-04-24T11:03:58;96145.88;;;14.18;100.00
17054;BME280;8643;48.824;11.422;2023-04-24T11:06:31;96142.34;;;13.87;100.00
17054;BME280;8643;48.824;11.422;2023-04-24T11:09:04;96136.84;;;13.87;100.00
17054;BME280;8643;48.824;11.422;2023-04-24T11:11:35;96132.84;;;13.81;99.43
17054;BME280;8643;48.824;11.422;2023-04-24T11:14:07;96127.78;;;13.56;96.64
17054;BME280;8643;48.824;11.422;2023-04-24T11:16:43;96129.34;;;13.84;100.00
17054;BME280;8643;48.824;11.422;2023-04-24T11:19:22;96133.41;;;13.93;100.00
17054;BME280;8643;48.824;11.422;2023-04-24T11:21:58;96127.56;;;12.95;100.00
17054;BME280;8643;48.824;11.422;2023-04-24T11:24:32;96128.69;;;11.89;100.00
17054;BME280;8643;48.824;11.422;2023-04-24T11:27:15;96131.47;;;12.09;100.00
17054;BME280;8643;48.824;11.422;2023-04-24T11:29:48;96134.25;;;12.94;100.00
17054;BME280;8643;48.824;11.422;2023-04-24T11:32:29;96129.38;;;12.22;100.00
17054;BME280;8643;48.824;11.422;2023-04-24T11:35:00;96133.56;;;12.35;99.80
17054;BME280;8643;48.824;11.422;2023-04-24T11:37:33;96132.19;;;12.06;100.00
17054;BME280;8643;48.824;11.422;2023-04-24T11:40:03;96127.66;;;12.14;100.00
17054;BME280;8643;48.824;11.422;2023-04-24T11:42:34;96140.19;;;11.76;96.66
17054;BME280;8643;48.824;11.422;2023-04-24T11:45:08;96134.75;;;11.79;98.48
17054;BME280;8643;48.824;11.422;2023-04-24T11:47:39;96126.06;;;14.39;89.60
17054;BME280;8643;48.824;11.422;2023-04-24T11:50:11;96133.88;;;15.12;78.31
17054;BME280;8643;48.824;11.422;2023-04-24T11:52:41;96132.50;;;15.91;75.06
17054;BME280;8643;48.824;11.422;2023-04-24T11:55:24;96134.38;;;15.21;72.51
17054;BME280;8643;48.824;11.422;2023-04-24T11:57:56;96146.63;;;14.15;77.06
17054;BME280;8643;48.824;11.422;2023-04-24T12:00:27;96140.28;;;13.27;80.17
17054;BME280;8643;48.824;11.422;2023-04-24T12:03:06;96136.97;;;13.17;79.40
17054;BME280;8643;48.824;11.422;2023-04-24T12:05:36;96131.84;;;13.39;76.74
17054;BME280;8643;48.824;11.422;2023-04-24T12:08:06;96136.09;;;13.13;78.70
17054;BME280;8643;48.824;11.422;2023-04-24T12:10:36;96135.53;;;13.00;78.62
17054;BME280;8643;48.824;11.422;2023-04-24T12:13:05;96139.66;;;13.14;78.70
17054;BME280;8643;48.824;11.422;2023-04-24T12:15:34;96151.22;;;13.00;78.11
17054;BME280;8643;48.824;11.422;2023-04-24T12:18:05;96155.41;;;12.71;76.16
17054;BME280;8643;48.824;11.422;2023-04-24T12:20:35;96168.59;;;13.31;76.32
17054;BME280;8643;48.824;11.422;2023-04-24T12:23:03;96161.78;;;15.03;69.70
17054;BME280;8643;48.824;11.422;2023-04-24T12:25:32;96156.72;;;15.61;66.36
17054;BME280;8643;48.824;11.422;2023-04-24T12:28:10;96163.63;;;15.88;62.07
17054;BME280;8643;48.824;11.422;2023-04-24T12:30:42;96162.38;;;14.48;63.63
17054;BME280;8643;48.824;11.422;2023-04-24T12:33:17;96153.59;;;13.48;66.56
17054;BME280;8643;48.824;11.422;2023-04-24T12:35:47;96175.56;;;13.25;65.58
17054;BME280;8643;48.824;11.422;2023-04-24T12:38:16;96166.22;;;13.06;68.37
17054;BME280;8643;48.824;11.422;2023-04-24T12:41:02;96170.50;;;12.80;71.31
17054;BME280;8643;48.824;11.422;2023-04-24T12:43:31;96173.75;;;12.86;70.12
17054;BME280;8643;48.824;11.422;2023-04-24T12:46:00;96168.25;;;13.09;69.07
17054;BME280;8643;48.824;11.422;2023-04-24T12:48:30;96170.22;;;13.09;68.15
17054;BME280;8643;48.824;11.422;2023-04-24T12:50:59;96175.22;;;15.08;62.83
17054;BME280;8643;48.824;11.422;2023-04-24T12:53:29;96160.41;;;14.86;60.70
17054;BME280;8643;48.824;11.422;2023-04-24T12:55:58;96167.59;;;13.66;63.55
17054;BME280;8643;48.824;11.422;2023-04-24T12:58:27;96176.81;;;12.81;66.13
17054;BME280;8643;48.824;11.422;2023-04-24T13:00:56;96178.59;;;12.31;66.93
17054;BME280;8643;48.824;11.422;2023-04-24T13:03:25;96190.41;;;12.15;71.72
17054;BME280;8643;48.824;11.422;2023-04-24T13:05:55;96195.69;;;12.04;71.46
17054;BME280;8643;48.824;11.422;2023-04-24T13:08:24;96190.47;;;12.19;70.28
17054;BME280;8643;48.824;11.422;2023-04-24T13:10:53;96197.34;;;12.28;66.32
17054;BME280;8643;48.824;11.422;2023-04-24T13:13:22;96193.41;;;12.88;67.75
17054;BME280;8643;48.824;11.422;2023-04-24T13:15:50;96201.69;;;14.15;61.40
17054;BME280;8643;48.824;11.422;2023-04-24T13:18:19;96198.38;;;13.48;61.69
17054;BME280;8643;48.824;11.422;2023-04-24T13:20:47;96207.34;;;12.99;62.02